Time;durP1;ratioP1;P1;durP2;ratioP2;P2;SDS_P1;SDS_P2;PMS_P1;PMS_P2;Temp;Humidity;BMP_temperature;BMP_pressure;BME280_temperature;BME280_humidity;BME280_pressure;Samples;Min_cycle;Max_cycle;Signal;HPM_P1;HPM_P2
2021/11/01 00:01:49;;;;;;;4.03;2.72;;;13.20;99.90;;;;;;6083030;23;20027;-86
2021/11/01 00:04:45;;;;;;;4.72;2.58;;;13.20;99.90;;;;;;6053247;23;20426;-87
2021/11/01 00:07:35;;;;;;;4.18;3.28;;;13.20;99.90;;;;;;6063047;23;20102;-85
2021/11/01 00:10:37;;;;;;;3.50;2.97;;;13.30;99.90;;;;;;6088696;23;20102;-87
2021/11/01 00:13:26;;;;;;;4.03;3.25;;;13.30;99.90;;;;;;6086723;23;20098;-85
2021/11/01 00:16:15;;;;;;;5.65;3.67;;;13.20;99.90;;;;;;6064378;23;20204;-86
2021/11/01 00:19:03;;;;;;;3.95;3.15;;;13.20;99.90;;;;;;6053477;23;20029;-87
2021/11/01 00:21:55;;;;;;;4.78;2.72;;;13.20;99.90;;;;;;6054736;23;20054;-86
2021/11/01 00:24:46;;;;;;;3.90;2.70;;;13.30;99.90;;;;;;6072697;23;20022;-88
2021/11/01 00:27:33;;;;;;;6.85;2.65;;;13.30;99.90;;;;;;6067310;23;20290;-86
2021/11/01 00:30:28;;;;;;;3.88;2.60;;;13.40;99.90;;;;;;6066957;23;20027;-88
2021/11/01 00:33:15;;;;;;;3.67;2.60;;;13.40;99.90;;;;;;6045993;23;20105;-87
2021/11/01 00:36:04;;;;;;;6.72;2.63;;;13.40;99.90;;;;;;6047015;23;20240;-89
2021/11/01 00:39:00;;;;;;;7.93;2.67;;;13.50;99.90;;;;;;6046391;23;20034;-89
2021/11/01 00:41:52;;;;;;;4.25;2.47;;;13.50;99.90;;;;;;6039170;23;20113;-87
2021/11/01 00:44:43;;;;;;;2.83;2.25;;;13.40;99.90;;;;;;6067547;23;20386;-90
2021/11/01 00:47:38;;;;;;;2.53;1.83;;;13.50;99.90;;;;;;6065618;23;20094;-87
2021/11/01 00:50:27;;;;;;;2.63;2.00;;;13.60;99.90;;;;;;6050165;23;20026;-88
2021/11/01 00:53:17;;;;;;;3.50;2.00;;;13.60;99.90;;;;;;6049732;23;20055;-89
2021/11/01 00:56:20;;;;;;;;;;;;;;;;;;;;;
2021/11/01 00:59:14;;;;;;;2.00;1.58;;;13.70;99.90;;;;;;6066691;23;20031;-89
2021/11/01 01:02:04;;;;;;;2.50;1.70;;;13.80;99.90;;;;;;6067959;23;20042;-89
2021/11/01 01:05:19;;;;;;;3.47;1.60;;;13.80;99.90;;;;;;6069321;23;20027;-88
2021/11/01 01:08:13;;;;;;;2.83;1.35;;;13.80;99.90;;;;;;6048954;23;20035;-90
2021/11/01 01:11:09;;;;;;;1.42;1.25;;;13.90;99.90;;;;;;6071841;23;20109;-91
2021/11/01 01:14:01;;;;;;;2.40;1.38;;;14.10;99.90;;;;;;6070672;23;20122;-87
2021/11/01 01:17:10;;;;;;;1.50;1.08;;;14.20;99.90;;;;;;6012422;23;20039;-86
2021/11/01 01:20:07;;;;;;;1.20;0.90;;;14.20;99.90;;;;;;6001102;23;20084;-87
2021/11/01 01:23:00;;;;;;;2.83;1.00;;;14.30;99.90;;;;;;5985862;23;20123;-86
2021/11/01 01:25:54;;;;;;;2.38;1.45;;;14.30;99.90;;;;;;6020438;23;20119;-87
2021/11/01 01:28:44;;;;;;;1.95;1.42;;;14.20;99.90;;;;;;6009068;23;20022;-86
2021/11/01 01:31:32;;;;;;;1.83;1.23;;;14.20;99.90;;;;;;6028794;23;20075;-87
2021/11/01 01:34:23;;;;;;;2.20;1.15;;;14.10;99.90;;;;;;6025607;23;20094;-88
2021/11/01 01:37:14;;;;;;;2.75;1.30;;;14.10;99.90;;;;;;6072979;23;20031;-88
2021/11/01 01:40:02;;;;;;;1.20;1.10;;;14.00;99.90;;;;;;6073340;23;20026;-87
2021/11/01 01:42:51;;;;;;;3.10;1.75;;;14.00;99.90;;;;;;6050628;23;20031;-87
2021/11/01 01:45:39;;;;;;;1.73;1.10;;;13.90;99.90;;;;;;6068467;23;20027;-89
2021/11/01 01:48:26;;;;;;;1.77;1.20;;;13.90;99.90;;;;;;6068439;23;20085;-88
2021/11/01 01:51:25;;;;;;;2.22;1.23;;;13.90;99.90;;;;;;6068084;23;20442;-87
2021/11/01 01:54:16;;;;;;;1.77;1.25;;;13.90;99.90;;;;;;6047315;23;20027;-88
2021/11/01 01:57:12;;;;;;;3.65;1.50;;;13.90;99.90;;;;;;6045280;23;20077;-88
2021/11/01 02:00:09;;;;;;;3.08;1.52;;;13.90;99.90;;;;;;6047756;23;20346;-88
2021/11/01 02:03:16;;;;;;;1.95;1.35;;;13.80;99.90;;;;;;6048156;23;20613;-88
2021/11/01 02:06:43;;;;;;;;;;;;;;;;;;;;;
2021/11/01 02:10:03;;;;;;;;;;;;;;;;;;;;;
2021/11/01 02:13:17;;;;;;;1.50;1.40;;;13.70;99.90;;;;;;6066499;23;20046;-89
2021/11/01 02:16:13;;;;;;;3.03;1.90;;;13.70;99.90;;;;;;6065655;23;20035;-88
2021/11/01 02:19:10;;;;;;;4.68;1.60;;;13.30;99.90;;;;;;6066249;23;20035;-85
2021/11/01 02:22:08;;;;;;;1.55;1.30;;;13.00;99.90;;;;;;6046495;23;20099;-88
2021/11/01 02:25:04;;;;;;;1.55;1.00;;;12.50;99.90;;;;;;6044498;23;20033;-88
2021/11/01 02:27:52;;;;;;;3.67;1.20;;;12.10;99.90;;;;;;6066657;23;20312;-86
2021/11/01 02:30:40;;;;;;;5.22;1.45;;;11.80;99.90;;;;;;6045552;23;20045;-84
2021/11/01 02:33:28;;;;;;;2.35;1.05;;;11.60;99.90;;;;;;6068439;23;20038;-86
2021/11/01 02:36:18;;;;;;;2.08;1.00;;;11.50;99.90;;;;;;6045929;23;20367;-86
2021/11/01 02:39:06;;;;;;;4.28;1.13;;;11.30;99.90;;;;;;6065988;23;20061;-86
2021/11/01 02:41:53;;;;;;;1.45;0.80;;;11.20;99.90;;;;;;6087446;23;20283;-86
2021/11/01 02:45:03;;;;;;;2.85;0.98;;;11.10;99.90;;;;;;6071849;23;20034;-86
2021/11/01 02:47:51;;;;;;;4.03;0.88;;;11.00;99.90;;;;;;6074752;23;20030;-86
2021/11/01 02:50:39;;;;;;;4.65;1.10;;;10.90;99.90;;;;;;6093081;23;20402;-86
2021/11/01 02:53:28;;;;;;;2.65;1.38;;;10.90;99.90;;;;;;6092042;23;20038;-86
2021/11/01 02:56:16;;;;;;;9.43;1.30;;;10.80;99.90;;;;;;6071146;23;20033;-87
2021/11/01 02:59:04;;;;;;;4.60;0.82;;;10.80;99.90;;;;;;6093499;23;20034;-86
2021/11/01 03:01:52;;;;;;;2.65;0.98;;;10.70;99.90;;;;;;6074211;23;20049;-86
2021/11/01 03:04:39;;;;;;;5.57;0.77;;;10.70;99.90;;;;;;6076654;23;20121;-85
2021/11/01 03:07:27;;;;;;;5.13;0.77;;;10.70;99.90;;;;;;6074138;23;20030;-86
2021/11/01 03:10:16;;;;;;;3.17;1.00;;;10.60;99.90;;;;;;6074641;23;20082;-86
2021/11/01 03:13:04;;;;;;;4.28;1.15;;;10.60;99.90;;;;;;6075466;23;20022;-86
2021/11/01 03:15:56;;;;;;;2.50;0.82;;;10.50;99.90;;;;;;6093863;23;20379;-87
2021/11/01 03:18:47;;;;;;;4.32;1.27;;;10.50;99.90;;;;;;6075837;23;20105;-87
2021/11/01 03:21:42;;;;;;;3.53;1.25;;;10.40;99.90;;;;;;6095490;23;20109;-87
2021/11/01 03:24:33;;;;;;;6.13;1.20;;;10.40;99.90;;;;;;6098733;23;20130;-87
2021/11/01 03:27:25;;;;;;;3.40;1.05;;;10.40;99.90;;;;;;6094315;23;20109;-87
2021/11/01 03:30:16;;;;;;;3.50;1.70;;;10.40;99.90;;;;;;6097778;23;20053;-87
2021/11/01 03:33:10;;;;;;;4.75;1.08;;;10.30;99.90;;;;;;6119955;23;20026;-86
2021/11/01 03:36:08;;;;;;;5.30;1.13;;;10.30;99.90;;;;;;6085445;23;20036;-87
2021/11/01 03:38:59;;;;;;;3.90;1.13;;;10.30;99.90;;;;;;6083391;23;20417;-87
2021/11/01 03:41:48;;;;;;;7.05;1.13;;;10.30;99.90;;;;;;6087199;23;20037;-87
2021/11/01 03:44:43;;;;;;;4.05;1.33;;;10.20;99.90;;;;;;6085160;23;20041;-87
2021/11/01 03:47:35;;;;;;;6.40;1.30;;;10.20;99.90;;;;;;6100722;23;20026;-87
2021/11/01 03:50:33;;;;;;;5.90;1.00;;;10.30;99.90;;;;;;6078266;23;20058;-87
2021/11/01 03:53:21;;;;;;;5.72;1.10;;;10.20;99.90;;;;;;6094875;23;20030;-87
2021/11/01 03:56:13;;;;;;;5.45;1.00;;;10.20;99.90;;;;;;6096129;23;20041;-87
2021/11/01 03:59:07;;;;;;;3.53;1.10;;;10.20;99.90;;;;;;6097652;23;20117;-87
2021/11/01 04:01:54;;;;;;;1.75;0.98;;;10.20;99.90;;;;;;6097420;23;20122;-87
2021/11/01 04:04:53;;;;;;;5.75;1.20;;;10.10;99.90;;;;;;6075615;23;20053;-88
2021/11/01 04:07:44;;;;;;;2.63;1.00;;;10.10;99.90;;;;;;6077061;23;20041;-87
2021/11/01 04:10:34;;;;;;;4.13;1.00;;;10.10;99.90;;;;;;6078680;23;20026;-87
2021/11/01 04:13:25;;;;;;;5.85;1.33;;;10.10;99.90;;;;;;6075807;23;20019;-87
2021/11/01 04:16:25;;;;;;;8.40;1.88;;;10.00;99.90;;;;;;6058363;23;20026;-87
2021/11/01 04:22:06;;;;;;;3.83;1.33;;;10.00;99.90;;;;;;6097326;23;20081;-87
2021/11/01 04:24:55;;;;;;;7.60;1.50;;;9.90;99.90;;;;;;6055378;23;20105;-87
2021/11/01 04:27:54;;;;;;;;;;;;;;;;;;;;;
2021/11/01 04:30:48;;;;;;;1.73;1.30;;;9.90;99.90;;;;;;6100050;23;20026;-88
2021/11/01 04:33:36;;;;;;;5.57;1.42;;;9.90;99.90;;;;;;6099970;23;20026;-88
2021/11/01 04:36:24;;;;;;;4.10;1.27;;;9.90;99.90;;;;;;6077829;23;20034;-88
2021/11/01 04:42:28;;;;;;;4.78;2.05;;;9.90;99.90;;;;;;6100294;23;20569;-87
2021/11/01 04:54:10;;;;;;;6.05;1.30;;;9.70;99.90;;;;;;6096893;23;20485;-87
2021/11/01 04:56:58;;;;;;;2.58;0.80;;;9.60;99.90;;;;;;6057555;23;20029;-86
2021/11/01 04:59:46;;;;;;;1.90;0.90;;;9.60;99.90;;;;;;6109163;23;20062;-87
2021/11/01 05:02:39;;;;;;;1.98;0.70;;;9.60;99.90;;;;;;6109465;23;20033;-86
2021/11/01 05:05:41;;;;;;;3.47;0.70;;;9.50;99.90;;;;;;6091913;23;20086;-86
2021/11/01 05:08:40;;;;;;;2.22;0.77;;;9.50;99.90;;;;;;6112561;23;20026;-86
2021/11/01 05:11:33;;;;;;;4.25;1.15;;;9.50;99.90;;;;;;6089327;23;20022;-87
2021/11/01 05:20:55;;;;;;;2.38;0.70;;;9.50;99.90;;;;;;6120139;23;20053;-86
2021/11/01 05:24:33;;;;;;;0.73;0.70;;;9.50;99.90;;;;;;6113605;23;20037;-86
2021/11/01 05:30:03;;;;;;;2.28;1.35;;;9.30;99.90;;;;;;6090807;23;20158;-87
2021/11/01 05:33:28;;;;;;;2.75;1.00;;;9.40;99.90;;;;;;6113187;23;20026;-87
2021/11/01 05:36:13;;;;;;;3.60;0.93;;;9.30;99.90;;;;;;6119473;23;20018;-86
2021/11/01 05:39:02;;;;;;;1.52;0.88;;;9.30;99.90;;;;;;6096417;23;20038;-86
2021/11/01 05:41:50;;;;;;;2.78;0.80;;;9.20;99.90;;;;;;6107818;23;20106;-88
2021/11/01 05:44:37;;;;;;;1.70;1.17;;;9.20;99.90;;;;;;6088054;23;20033;-87
2021/11/01 05:47:25;;;;;;;2.28;1.00;;;9.10;99.90;;;;;;6085991;23;20034;-88
2021/11/01 05:50:12;;;;;;;1.48;0.80;;;9.10;99.90;;;;;;6086294;23;20082;-88
2021/11/01 05:53:11;;;;;;;2.85;0.95;;;9.00;99.90;;;;;;6085549;23;20110;-87
2021/11/01 05:56:29;;;;;;;3.67;0.80;;;9.00;99.90;;;;;;6090976;23;20279;-88
2021/11/01 06:02:32;;;;;;;2.10;0.90;;;8.80;99.90;;;;;;6108373;23;20113;-87
2021/11/01 06:14:50;;;;;;;2.47;1.10;;;8.60;99.90;;;;;;6075529;23;20459;-86
2021/11/01 06:17:37;;;;;;;3.60;0.98;;;8.50;99.90;;;;;;6054825;23;20031;-87
2021/11/01 06:20:25;;;;;;;3.83;0.80;;;8.50;99.90;;;;;;6057035;23;20030;-86
2021/11/01 06:23:14;;;;;;;3.80;1.00;;;8.50;99.90;;;;;;6096447;23;20030;-88
2021/11/01 06:26:03;;;;;;;3.30;0.95;;;8.40;99.90;;;;;;6054697;23;20027;-87
2021/11/01 06:28:59;;;;;;;4.47;1.35;;;8.40;99.90;;;;;;6096559;23;20122;-87
2021/11/01 06:31:58;;;;;;;4.82;1.33;;;8.30;99.90;;;;;;6094430;23;20033;-87
2021/11/01 06:41:28;;;;;;;2.90;1.30;;;8.20;99.90;;;;;;6094357;23;20034;-86
2021/11/01 06:50:56;;;;;;;2.92;1.20;;;8.20;99.90;;;;;;6096793;23;20280;-87
2021/11/01 06:53:45;;;;;;;3.22;1.15;;;8.20;99.90;;;;;;6084880;23;20086;-83
2021/11/01 07:18:15;;;;;;;3.25;1.48;;;8.00;99.90;;;;;;6037228;23;20041;-84
2021/11/01 08:21:08;;;;;;;3.25;1.48;;;8.10;99.90;;;;;;6094843;23;20026;-88
2021/11/01 08:42:37;;;;;;;5.30;1.80;;;8.00;99.90;;;;;;6096475;23;20041;-86
2021/11/01 09:18:53;;;;;;;3.13;1.00;;;8.30;99.90;;;;;;6095319;23;20041;-88
2021/11/01 09:22:39;;;;;;;4.88;1.30;;;8.20;99.90;;;;;;6093586;23;20046;-86
2021/11/01 09:25:47;;;;;;;2.55;1.15;;;8.30;99.90;;;;;;6065827;23;20026;-86
2021/11/01 09:43:36;;;;;;;3.10;1.17;;;8.50;99.90;;;;;;6093855;23;20096;-87
2021/11/01 09:46:26;;;;;;;4.13;1.08;;;8.60;99.90;;;;;;6094783;23;20322;-85
2021/11/01 09:49:14;;;;;;;3.13;0.95;;;8.60;99.90;;;;;;6074172;23;20101;-86
2021/11/01 09:52:07;;;;;;;4.10;1.20;;;8.70;99.90;;;;;;6096986;23;20022;-87
2021/11/01 09:54:57;;;;;;;1.67;0.82;;;8.70;99.90;;;;;;6095731;23;20061;-86
2021/11/01 10:01:22;;;;;;;;;;;8.80;99.90;;;;;;6076787;23;20101;-88
2021/11/01 10:04:46;;;;;;;1.42;0.98;;;8.80;99.90;;;;;;6097294;23;19928;-85
2021/11/01 10:07:34;;;;;;;2.70;1.15;;;8.80;99.90;;;;;;6096232;23;20395;-88
2021/11/01 10:10:22;;;;;;;1.63;1.13;;;8.80;99.90;;;;;;6074352;23;20026;-88
2021/11/01 10:13:14;;;;;;;2.15;1.25;;;8.80;99.90;;;;;;6074702;23;20030;-89
2021/11/01 10:19:10;;;;;;;1.30;1.20;;;8.80;99.90;;;;;;6095346;23;20130;-87
2021/11/01 10:22:04;;;;;;;2.67;1.27;;;8.90;99.90;;;;;;6076034;23;20079;-85
2021/11/01 10:24:56;;;;;;;2.28;1.00;;;8.90;99.90;;;;;;6056421;23;20120;-87
2021/11/01 10:27:57;;;;;;;2.15;1.20;;;8.90;99.90;;;;;;6098529;23;20026;-86
2021/11/01 10:30:46;;;;;;;2.73;1.10;;;8.80;99.90;;;;;;6082101;23;20324;-87
2021/11/01 10:33:44;;;;;;;1.52;1.30;;;8.90;99.90;;;;;;6084398;23;20023;-87
2021/11/01 10:36:37;;;;;;;1.50;1.40;;;8.90;99.90;;;;;;6080193;23;20038;-87
2021/11/01 10:39:26;;;;;;;1.73;1.50;;;8.90;99.90;;;;;;6077782;23;20030;-88
2021/11/01 10:42:30;;;;;;;2.22;1.63;;;8.90;99.90;;;;;;6084248;23;20083;-88
2021/11/01 10:46:02;;;;;;;3.80;1.80;;;8.90;99.90;;;;;;6050156;23;20041;-86
2021/11/01 10:58:56;;;;;;;4.28;1.52;;;9.00;99.90;;;;;;6071863;23;20026;-87
2021/11/01 11:14:51;;;;;;;3.28;2.00;;;9.20;99.90;;;;;;6069279;23;20047;-86
2021/11/01 11:18:05;;;;;;;4.40;1.77;;;9.10;99.90;;;;;;6052872;23;20026;-88
2021/11/01 11:21:11;;;;;;;2.45;1.30;;;9.20;99.90;;;;;;6049331;23;20324;-88
2021/11/01 11:24:33;;;;;;;2.63;1.40;;;9.20;99.90;;;;;;6074657;23;20030;-88
2021/11/01 11:43:36;;;;;;;3.05;1.20;;;9.40;99.90;;;;;;6101442;23;20037;-89
2021/11/01 11:49:33;;;;;;;1.63;1.30;;;9.30;99.90;;;;;;6112328;23;20030;-88
2021/11/01 11:52:24;;;;;;;2.13;1.20;;;9.30;99.90;;;;;;6109143;23;20074;-89
2021/11/01 11:55:29;;;;;;;3.67;1.40;;;9.30;99.90;;;;;;6108216;23;20026;-89
2021/11/01 11:58:17;;;;;;;1.85;1.23;;;9.30;99.90;;;;;;6107749;23;20030;-89
2021/11/01 12:01:36;;;;;;;2.92;1.00;;;9.40;99.90;;;;;;6077993;23;20102;-91
2021/11/01 12:04:31;;;;;;;2.35;1.10;;;9.40;99.90;;;;;;6096385;23;20090;-89
2021/11/01 12:07:18;;;;;;;1.35;1.08;;;9.40;99.90;;;;;;6099178;23;20034;-88
2021/11/01 12:10:15;;;;;;;2.13;1.15;;;9.40;99.90;;;;;;6076650;23;20030;-86
2021/11/01 12:13:27;;;;;;;4.70;1.30;;;9.50;99.90;;;;;;6076774;23;20034;-88
2021/11/01 12:17:27;;;;;;;3.63;1.30;;;9.50;99.90;;;;;;6075463;23;20115;-86
2021/11/01 12:19:41;;;;;;;;;;;9.50;99.90;;;;;;6091105;23;20034;-88
2021/11/01 12:22:34;;;;;;;1.40;1.30;;;9.50;99.90;;;;;;6078638;23;19928;-87
2021/11/01 12:25:40;;;;;;;2.95;1.27;;;9.50;99.90;;;;;;6080593;23;20040;-87
2021/11/01 12:28:28;;;;;;;2.17;1.23;;;9.50;99.90;;;;;;6059886;23;20030;-86
2021/11/01 12:31:18;;;;;;;4.05;1.20;;;9.40;99.90;;;;;;6096878;23;20026;-90
2021/11/01 12:34:15;;;;;;;2.88;1.08;;;9.40;99.90;;;;;;6096343;23;20538;-89
2021/11/01 12:37:10;;;;;;;4.10;1.40;;;9.40;99.90;;;;;;6074477;23;20027;-88
2021/11/01 12:40:08;;;;;;;2.95;1.17;;;9.40;99.90;;;;;;6077184;23;20037;-89
2021/11/01 12:46:43;;;;;;;3.53;1.50;;;9.40;99.90;;;;;;6097960;23;20442;-89
2021/11/01 12:59:06;;;;;;;3.80;1.00;;;9.50;99.90;;;;;;6098329;23;20030;-88
2021/11/01 13:01:54;;;;;;;1.85;1.35;;;9.50;99.90;;;;;;6075630;23;20126;-88
2021/11/01 13:04:45;;;;;;;1.00;0.90;;;9.50;99.90;;;;;;6074354;23;20097;-89
2021/11/01 13:10:51;;;;;;;4.00;1.10;;;9.50;99.90;;;;;;6096193;23;20026;-89
2021/11/01 13:13:48;;;;;;;2.88;1.20;;;9.50;99.90;;;;;;6097542;23;20177;-87
2021/11/01 13:19:44;;;;;;;3.33;1.05;;;9.50;99.90;;;;;;6097880;23;20034;-89
2021/11/01 13:22:47;;;;;;;3.28;1.05;;;9.60;99.90;;;;;;6079583;23;20033;-88
2021/11/01 13:37:20;;;;;;;6.22;1.65;;;9.60;99.90;;;;;;6074721;23;20034;-88
2021/11/01 13:40:13;;;;;;;4.82;1.77;;;9.70;99.90;;;;;;6093299;23;20109;-89
2021/11/01 13:43:00;;;;;;;4.35;1.58;;;9.70;99.90;;;;;;6076066;23;20037;-89
2021/11/01 13:45:52;;;;;;;6.72;2.30;;;9.80;99.90;;;;;;6097044;23;20125;-86
2021/11/01 13:48:56;;;;;;;3.78;1.60;;;9.80;99.90;;;;;;6094454;23;20406;-85
2021/11/01 13:51:46;;;;;;;2.55;1.42;;;9.90;99.90;;;;;;6075382;23;20109;-88
2021/11/01 13:54:40;;;;;;;2.17;1.20;;;9.90;99.90;;;;;;6054044;23;20030;-90
2021/11/01 13:57:39;;;;;;;3.08;1.30;;;9.90;99.90;;;;;;6094505;23;20135;-88
2021/11/01 14:12:50;;;;;;;2.50;1.38;;;10.20;99.90;;;;;;6077990;23;20411;-87
2021/11/01 14:31:05;;;;;;;3.15;1.55;;;10.20;99.90;;;;;;6095406;23;20061;-87
2021/11/01 15:12:27;;;;;;;2.63;1.40;;;10.30;99.90;;;;;;6098176;23;20052;-89
2021/11/01 15:15:12;;;;;;;3.63;1.73;;;10.40;99.90;;;;;;6097724;23;20125;-87
2021/11/01 15:18:19;;;;;;;4.43;1.40;;;10.40;99.90;;;;;;6081127;23;20030;-87
2021/11/01 15:27:19;;;;;;;4.25;2.10;;;10.30;99.90;;;;;;6103061;23;20596;-87
2021/11/01 15:40:07;;;;;;;4.25;2.25;;;11.70;99.90;;;;;;6092129;23;20026;-86
2021/11/01 16:20:34;;;;;;;5.65;2.30;;;8.50;99.90;;;;;;6039488;23;20027;-87
2021/11/01 16:23:34;;;;;;;5.50;2.85;;;8.30;99.90;;;;;;6096878;23;20566;-86
2021/11/01 16:29:15;;;;;;;11.80;6.90;;;7.90;99.90;;;;;;6096476;23;20284;-86
2021/11/01 16:32:07;;;;;;;10.68;6.30;;;7.80;99.90;;;;;;6078682;23;20027;-85
2021/11/01 16:35:00;;;;;;;12.60;5.25;;;7.60;99.90;;;;;;6076982;23;20098;-84
2021/11/01 16:38:05;;;;;;;10.38;6.22;;;7.50;99.90;;;;;;6099464;23;20091;-87
2021/11/01 16:40:54;;;;;;;7.68;4.07;;;7.50;99.90;;;;;;6097724;23;20033;-86
2021/11/01 16:43:44;;;;;;;8.73;4.95;;;7.60;99.90;;;;;;6099672;23;20113;-89
2021/11/01 16:46:32;;;;;;;10.27;4.88;;;7.70;99.90;;;;;;6102816;23;20030;-87
2021/11/01 16:49:22;;;;;;;8.52;5.28;;;7.80;99.90;;;;;;6099556;23;20435;-87
2021/11/01 16:52:16;;;;;;;8.15;4.28;;;7.90;99.90;;;;;;6099912;23;20026;-86
2021/11/01 16:55:13;;;;;;;7.35;4.30;;;8.10;99.90;;;;;;6094253;23;20097;-86
2021/11/01 16:58:11;;;;;;;18.88;10.60;;;8.20;99.90;;;;;;6097160;23;20430;-86
2021/11/01 17:01:06;;;;;;;13.90;7.97;;;8.20;99.90;;;;;;6096602;23;20062;-89
2021/11/01 17:04:12;;;;;;;13.13;6.03;;;8.20;99.90;;;;;;6095634;23;20026;-85
2021/11/01 17:07:09;;;;;;;11.10;6.68;;;8.10;99.90;;;;;;6077969;23;20030;-88
2021/11/01 17:22:24;;;;;;;16.00;8.90;;;7.90;99.90;;;;;;6099982;23;20086;-86
2021/11/01 17:25:22;;;;;;;10.95;6.85;;;7.90;99.90;;;;;;6086908;23;20030;-87
2021/11/01 17:28:24;;;;;;;21.13;10.07;;;7.90;99.90;;;;;;6107892;23;20026;-86
2021/11/01 17:38:11;;;;;;;18.98;11.80;;;8.00;99.90;;;;;;6101998;23;20022;-87
2021/11/01 18:44:00;;;;;;;18.70;11.50;;;6.50;99.90;;;;;;6096649;23;20022;-87
2021/11/01 18:52:41;;;;;;;12.40;7.63;;;6.20;99.90;;;;;;6097207;23;20034;-87
2021/11/01 18:55:29;;;;;;;11.10;5.25;;;6.00;99.90;;;;;;6075313;23;20032;-87
2021/11/01 18:58:23;;;;;;;9.43;6.85;;;6.10;99.90;;;;;;6099437;23;20072;-87
2021/11/01 19:01:14;;;;;;;12.40;7.03;;;6.00;99.90;;;;;;6078462;23;20034;-86
2021/11/01 19:04:08;;;;;;;8.45;5.88;;;6.00;99.90;;;;;;6099160;23;20200;-88
2021/11/01 19:07:47;;;;;;;7.97;3.90;;;5.90;99.90;;;;;;6077372;23;20123;-87
2021/11/01 19:17:26;;;;;;;8.52;5.82;;;5.70;99.90;;;;;;6108308;23;20027;-87
2021/11/01 21:25:01;;;;;;;18.80;12.30;;;5.60;99.90;;;;;;6097330;23;20027;-88
2021/11/01 21:27:50;;;;;;;14.25;10.77;;;5.60;99.90;;;;;;6077100;23;20034;-88
2021/11/01 21:30:40;;;;;;;16.85;11.43;;;5.60;99.90;;;;;;6110305;23;20030;-89
2021/11/01 21:33:32;;;;;;;19.05;10.80;;;5.60;99.90;;;;;;6107672;23;20027;-86
2021/11/01 21:36:25;;;;;;;16.70;11.55;;;5.60;99.90;;;;;;6109784;23;20026;-86
2021/11/01 21:39:17;;;;;;;14.00;10.30;;;5.60;99.90;;;;;;6101897;23;20114;-88
2021/11/01 21:42:05;;;;;;;20.70;11.90;;;5.60;99.90;;;;;;6103953;23;20030;-88
2021/11/01 21:44:54;;;;;;;18.25;10.45;;;5.70;99.90;;;;;;6102514;23;20098;-88
2021/11/01 21:47:49;;;;;;;16.52;9.98;;;5.70;99.90;;;;;;6097317;23;20022;-88
2021/11/01 21:50:36;;;;;;;19.20;10.68;;;5.80;99.90;;;;;;6101088;23;20022;-87
2021/11/01 21:53:25;;;;;;;21.95;9.45;;;5.80;99.90;;;;;;6096636;23;20030;-86
2021/11/01 21:56:15;;;;;;;16.90;9.35;;;5.80;99.90;;;;;;6095798;23;20031;-86
2021/11/01 22:17:39;;;;;;;16.60;11.30;;;5.60;99.90;;;;;;6092904;23;20026;-88
2021/11/01 22:20:27;;;;;;;18.50;12.20;;;5.60;99.90;;;;;;6096334;23;20023;-86
2021/11/01 22:26:44;;;;;;;24.00;12.98;;;5.50;99.90;;;;;;6105743;23;20122;-87
2021/11/01 22:32:56;;;;;;;17.15;9.80;;;5.50;99.90;;;;;;6094265;23;20034;-88
2021/11/01 22:41:43;;;;;;;11.15;7.82;;;5.80;99.90;;;;;;6096145;23;20418;-87
2021/11/01 22:45:39;;;;;;;16.70;8.43;;;5.80;99.90;;;;;;6097084;23;20026;-87
2021/11/01 22:57:24;;;;;;;16.80;9.40;;;5.70;99.90;;;;;;6052959;23;20031;-88
2021/11/01 23:00:21;;;;;;;16.65;9.57;;;5.50;99.90;;;;;;6107750;23;20465;-87
2021/11/01 23:03:34;;;;;;;17.15;9.23;;;5.50;99.90;;;;;;6096473;23;20414;-87
2021/11/01 23:34:17;;;;;;;16.52;10.13;;;5.00;99.90;;;;;;6106210;23;20320;-85
2021/11/01 23:37:07;;;;;;;17.90;11.27;;;4.90;99.90;;;;;;6095796;23;20026;-86
2021/11/01 23:39:54;;;;;;;16.77;10.90;;;4.80;99.90;;;;;;6096809;23;20094;-88
2021/11/01 23:42:43;;;;;;;16.60;10.73;;;4.80;99.90;;;;;;6107952;23;20059;-88
2021/11/01 23:45:36;;;;;;;16.80;11.07;;;4.80;99.90;;;;;;6108576;23;20407;-87
2021/11/01 23:48:24;;;;;;;21.73;10.57;;;4.90;99.90;;;;;;6084240;23;20054;-88
2021/11/01 23:51:14;;;;;;;22.95;9.85;;;5.10;99.90;;;;;;6099967;23;20082;-88
2021/11/01 23:54:23;;;;;;;18.48;9.25;;;5.10;99.90;;;;;;6105344;23;20081;-88
2021/11/01 23:57:15;;;;;;;19.75;9.10;;;5.30;99.90;;;;;;6097867;23;20030;-87
